Time;durP1;ratioP1;P1;durP2;ratioP2;P2;SDS_P1;SDS_P2;PMS_P1;PMS_P2;Temp;Humidity;BMP_temperature;BMP_pressure;BME280_temperature;BME280_humidity;BME280_pressure;Samples;Min_cycle;Max_cycle;Signal;HPM_P1;HPM_P2
2022/06/28 00:00:54;;;;;;;0.40;0.30;;;;;;;;;;21167124;28;20210;-75
2022/06/28 00:10:55;;;;;;;0.30;0.30;;;;;;;;;;21148299;28;20227;-75
2022/06/28 00:20:57;;;;;;;0.20;0.20;;;;;;;;;;21098372;28;20703;-75
2022/06/28 00:30:59;;;;;;;0.57;0.30;;;;;;;;;;21140789;28;20279;-75
2022/06/28 00:41:00;;;;;;;0.33;0.30;;;;;;;;;;21136243;28;20211;-75
2022/06/28 00:51:02;;;;;;;0.90;0.27;;;20.50;99.90;;;;;;21143661;28;20290;-75
2022/06/28 01:01:04;;;;;;;0.30;0.30;;;;;;;;;;21156438;28;20236;-75
2022/06/28 01:11:21;;;;;;;0.30;0.30;;;;;;;;;;21076402;22;20714;-71
2022/06/28 01:21:30;;;;;;;2.10;0.40;;;;;;;;;;20929615;28;20245;-72
2022/06/28 01:31:34;;;;;;;0.33;0.30;;;;;;;;;;20959526;28;20231;-72
2022/06/28 01:41:36;;;;;;;0.50;0.30;;;;;;;;;;20949107;28;20217;-71
2022/06/28 01:52:05;;;;;;;0.90;0.40;;;19.80;99.90;;;;;;20956400;28;20629;-72
2022/06/28 02:02:07;;;;;;;0.70;0.40;;;;;;;;;;20933906;28;20567;-72
2022/06/28 02:12:41;;;;;;;0.40;0.30;;;;;;;;;;20960200;28;20221;-72
2022/06/28 02:22:43;;;;;;;0.93;0.40;;;;;;;;;;20971728;28;20270;-72
2022/06/28 02:32:45;;;;;;;0.40;0.33;;;;;;;;;;20938665;28;20589;-72
2022/06/28 02:42:47;;;;;;;0.40;0.40;;;;;;;;;;20938575;28;20203;-72
2022/06/28 02:52:49;;;;;;;0.50;0.30;;;;;;;;;;20937753;28;20213;-72
2022/06/28 03:02:51;;;;;;;0.57;0.40;;;;;;;;;;20953997;28;20268;-71
2022/06/28 03:12:55;;;;;;;0.60;0.40;;;;;;;;;;20958477;28;20262;-72
2022/06/28 03:22:57;;;;;;;1.37;0.50;;;;;;;;;;20968759;28;20626;-72
2022/06/28 03:32:59;;;;;;;0.80;0.30;;;;;;;;;;20951846;28;20220;-72
2022/06/28 03:43:06;;;;;;;0.87;0.30;;;;;;;;;;20863355;28;20281;-72
2022/06/28 03:53:08;;;;;;;0.60;0.40;;;;;;;;;;20851830;28;20694;-72
2022/06/28 04:03:29;;;;;;;1.13;0.40;;;18.50;99.90;;;;;;20899702;28;20225;-72
2022/06/28 04:13:31;;;;;;;0.97;0.40;;;;;;;;;;20900602;28;20211;-72
2022/06/28 04:23:33;;;;;;;0.83;0.50;;;18.30;99.90;;;;;;20851997;28;20276;-71
2022/06/28 04:33:37;;;;;;;0.30;0.30;;;;;;;;;;20850631;28;20210;-72
2022/06/28 04:43:39;;;;;;;0.93;0.37;;;;;;;;;;20920459;28;20210;-72
2022/06/28 04:53:43;;;;;;;0.60;0.33;;;18.40;99.90;;;;;;20946228;28;20222;-72
2022/06/28 05:03:45;;;;;;;1.30;0.47;;;;;;;;;;20929297;28;20253;-71
2022/06/28 05:14:13;;;;;;;0.53;0.37;;;;;;;;;;20947910;28;20593;-71
2022/06/28 05:24:15;;;;;;;0.60;0.40;;;;;;;;;;20943688;28;20202;-71
2022/06/28 05:34:20;;;;;;;1.17;0.40;;;;;;;;;;20909018;28;20253;-71
2022/06/28 05:44:23;;;;;;;0.40;0.40;;;;;;;;;;20938469;28;20223;-71
2022/06/28 05:54:25;;;;;;;1.17;0.70;;;;;;;;;;20940972;28;20222;-71
2022/06/28 06:04:27;;;;;;;2.70;0.70;;;;;;;;;;20935799;28;20230;-71
2022/06/28 06:14:29;;;;;;;2.10;0.93;;;;;;;;;;20906267;28;20224;-71
2022/06/28 06:24:31;;;;;;;2.07;0.90;;;;;;;;;;20903281;28;20286;-71
2022/06/28 06:34:40;;;;;;;2.63;1.03;;;;;;;;;;20953662;28;20231;-71
2022/06/28 06:44:45;;;;;;;2.97;1.67;;;;;;;;;;20921083;28;20213;-72
2022/06/28 06:54:47;;;;;;;1.13;0.90;;;;;;;;;;20928968;28;20259;-72
2022/06/28 07:04:49;;;;;;;2.40;1.07;;;;;;;;;;20923399;28;20378;-71
2022/06/28 07:14:51;;;;;;;1.33;0.80;;;;;;;;;;20952657;28;20205;-71
2022/06/28 07:24:56;;;;;;;1.00;0.80;;;;;;;;;;20936492;28;20218;-71
2022/06/28 07:34:58;;;;;;;1.10;0.70;;;;;;;;;;20936175;28;20363;-71
2022/06/28 07:45:00;;;;;;;1.67;0.80;;;;;;;;;;20952415;28;20280;-70
2022/06/28 07:55:06;;;;;;;1.07;0.77;;;21.20;99.90;;;;;;20934707;28;20222;-71
2022/06/28 08:05:28;;;;;;;1.40;0.70;;;;;;;;;;20953061;28;20233;-70
2022/06/28 08:15:31;;;;;;;1.70;0.70;;;;;;;;;;20948478;28;20251;-71
2022/06/28 08:25:33;;;;;;;1.58;0.70;;;;;;;;;;20980849;28;20270;-72
2022/06/28 08:35:43;;;;;;;2.45;0.68;;;;;;;;;;20948301;28;20301;-71
2022/06/28 08:45:44;;;;;;;0.65;0.50;;;;;;;;;;20944049;28;20220;-71
2022/06/28 08:55:48;;;;;;;0.60;0.40;;;22.40;99.90;;;;;;20962855;28;20236;-71
2022/06/28 09:05:50;;;;;;;1.55;0.68;;;;;;;;;;20927995;28;20745;-71
2022/06/28 09:15:54;;;;;;;0.40;0.40;;;;;;;;;;20959675;28;20642;-72
2022/06/28 09:26:01;;;;;;;0.73;0.60;;;23.00;99.90;;;;;;20943324;28;20586;-74
2022/06/28 09:36:03;;;;;;;0.82;0.50;;;;;;;;;;20942220;28;20564;-73
2022/06/28 09:46:05;;;;;;;0.60;0.40;;;;;;;;;;20957438;28;20209;-73
2022/06/28 09:56:08;;;;;;;0.40;0.40;;;;;;;;;;20940319;28;20664;-73
2022/06/28 10:06:10;;;;;;;1.20;0.45;;;;;;;;;;20955270;28;20237;-73
2022/06/28 10:17:05;;;;;;;0.80;0.45;;;24.30;99.90;;;;;;20967677;28;20256;-73
2022/06/28 10:27:25;;;;;;;0.75;0.40;;;24.50;99.90;;;;;;20942561;28;20753;-73
2022/06/28 10:37:28;;;;;;;0.88;0.38;;;;;;;;;;20938117;28;20205;-74
2022/06/28 10:47:30;;;;;;;0.82;0.30;;;;;;;;;;20937640;28;20204;-73
2022/06/28 10:57:40;;;;;;;0.85;0.30;;;25.00;99.90;;;;;;20953501;28;20220;-73
2022/06/28 11:07:55;;;;;;;0.30;0.30;;;25.20;99.90;;;;;;20937138;28;20725;-72
2022/06/28 11:17:57;;;;;;;0.40;0.30;;;;;;;;;;20938408;28;20195;-73
2022/06/28 11:27:59;;;;;;;0.70;0.30;;;;;;;;;;20952556;28;20224;-73
2022/06/28 11:38:05;;;;;;;0.30;0.30;;;25.90;99.90;;;;;;20963200;28;20272;-74
2022/06/28 11:48:16;;;;;;;0.70;0.43;;;26.20;99.90;;;;;;20982730;28;20261;-73
2022/06/28 11:58:29;;;;;;;0.95;0.28;;;26.30;97.30;;;;;;20966422;28;20242;-74
2022/06/28 12:08:41;;;;;;;1.05;0.40;;;;;;;;;;20948844;28;20220;-74
2022/06/28 12:19:04;;;;;;;0.75;0.30;;;;;;;;;;20947867;28;20253;-73
2022/06/28 12:29:06;;;;;;;0.63;0.30;;;;;;;;;;20963684;28;20225;-73
2022/06/28 12:39:08;;;;;;;0.60;0.35;;;;;;;;;;20963432;28;20216;-73
2022/06/28 12:49:10;;;;;;;0.52;0.30;;;;;;;;;;20961441;28;20609;-74
2022/06/28 12:59:12;;;;;;;1.45;0.50;;;;;;;;;;20962284;28;20617;-73
2022/06/28 13:09:14;;;;;;;0.38;0.28;;;;;;;;;;20921057;28;20761;-70
2022/06/28 13:19:17;;;;;;;0.65;0.32;;;;;;;;;;20928771;28;20270;-73
2022/06/28 13:29:27;;;;;;;0.55;0.25;;;;;;;;;;20913453;28;20241;-72
2022/06/28 13:39:29;;;;;;;1.30;0.52;;;;;;;;;;20941635;28;20216;-72
2022/06/28 13:49:30;;;;;;;1.85;0.38;;;;;;;;;;20940538;28;20249;-72
2022/06/28 13:59:32;;;;;;;0.55;0.38;;;27.80;99.90;;;;;;20891588;28;20261;-73
2022/06/28 14:09:34;;;;;;;0.20;0.20;;;;;;;;;;20955741;28;20223;-72
2022/06/28 14:19:37;;;;;;;0.70;0.43;;;;;;;;;;20941570;28;20282;-74
2022/06/28 14:29:39;;;;;;;0.63;0.60;;;;;;;;;;20939182;28;20288;-75
2022/06/28 14:39:40;;;;;;;0.40;0.30;;;28.30;88.10;;;;;;20954225;28;20207;-75
2022/06/28 14:49:43;;;;;;;0.85;0.22;;;;;;;;;;20937038;28;20282;-73
2022/06/28 14:59:45;;;;;;;0.40;0.30;;;;;;;;;;20953553;28;20215;-75
2022/06/28 15:09:48;;;;;;;0.30;0.30;;;;;;;;;;20959207;28;20216;-73
2022/06/28 15:19:50;;;;;;;0.50;0.30;;;;;;;;;;20986094;28;20751;-75
2022/06/28 15:40:11;;;;;;;0.30;0.20;;;;;;;;;;20971068;28;20211;-72
2022/06/28 15:50:13;;;;;;;0.52;0.20;;;;;;;;;;20967272;28;20234;-74
2022/06/28 16:00:15;;;;;;;0.38;0.30;;;;;;;;;;20920903;28;20217;-76
2022/06/28 16:10:18;;;;;;;1.25;0.40;;;27.70;83.50;;;;;;20968157;28;20239;-75
2022/06/28 16:20:20;;;;;;;0.20;0.20;;;;;;;;;;20942093;28;20210;-72
2022/06/28 16:30:23;;;;;;;1.52;0.28;;;;;;;;;;20914413;28;20257;-72
2022/06/28 16:40:25;;;;;;;0.30;0.30;;;27.90;81.40;;;;;;20897261;28;20559;-72
2022/06/28 16:50:27;;;;;;;0.52;0.20;;;;;;;;;;20957185;28;20718;-72
2022/06/28 17:00:29;;;;;;;0.30;0.20;;;;;;;;;;20954984;28;20616;-72
2022/06/28 17:10:31;;;;;;;0.85;0.50;;;;;;;;;;20958560;28;20258;-75
2022/06/28 17:20:33;;;;;;;0.57;0.40;;;;;;;;;;20861930;28;20214;-74
2022/06/28 17:30:35;;;;;;;0.25;0.20;;;;;;;;;;20844584;28;20278;-73
2022/06/28 17:40:37;;;;;;;0.47;0.20;;;;;;;;;;20842283;28;20278;-74
2022/06/28 17:50:39;;;;;;;1.38;0.30;;;;;;;;;;20869937;28;20232;-73
2022/06/28 18:00:41;;;;;;;0.20;0.20;;;;;;;;;;20858095;28;20248;-73
2022/06/28 18:10:43;;;;;;;0.40;0.20;;;;;;;;;;20809468;28;20232;-73
2022/06/28 18:20:45;;;;;;;0.60;0.30;;;;;;;;;;20828359;28;20209;-74
2022/06/28 18:30:46;;;;;;;3.45;2.65;;;26.80;89.20;;;;;;20863981;28;20587;-73
2022/06/28 18:40:48;;;;;;;1.85;0.68;;;;;;;;;;20845640;28;20266;-74
2022/06/28 18:50:50;;;;;;;0.75;0.30;;;;;;;;;;20879089;28;20582;-74
2022/06/28 19:00:52;;;;;;;0.98;0.25;;;;;;;;;;20794294;28;20212;-73
2022/06/28 19:10:54;;;;;;;0.57;0.30;;;;;;;;;;20767001;28;20862;-73
2022/06/28 19:20:57;;;;;;;2.60;0.43;;;;;;;;;;20857803;28;20263;-73
2022/06/28 19:30:59;;;;;;;0.88;0.30;;;;;;;;;;20860214;28;20231;-77
2022/06/28 19:41:01;;;;;;;0.45;0.30;;;;;;;;;;20850964;28;20294;-77
2022/06/28 19:51:03;;;;;;;0.68;0.30;;;;;;;;;;20801327;28;20251;-78
2022/06/28 20:01:05;;;;;;;2.13;0.60;;;;;;;;;;20872440;28;20671;-75
2022/06/28 20:11:07;;;;;;;0.60;0.43;;;;;;;;;;20888753;28;20244;-76
2022/06/28 20:21:10;;;;;;;0.93;0.40;;;;;;;;;;20862328;28;20213;-73
2022/06/28 20:31:12;;;;;;;1.38;0.47;;;;;;;;;;20880071;28;20220;-74
2022/06/28 20:51:35;;;;;;;0.45;0.30;;;25.20;99.90;;;;;;20899262;28;20214;-76
2022/06/28 21:01:37;;;;;;;0.60;0.30;;;;;;;;;;20862706;28;20212;-76
2022/06/28 21:11:39;;;;;;;0.75;0.38;;;;;;;;;;20845763;28;20217;-77
2022/06/28 21:21:41;;;;;;;0.50;0.30;;;;;;;;;;20883354;28;20739;-76
2022/06/28 21:31:43;;;;;;;0.45;0.32;;;;;;;;;;20847446;28;20224;-73
2022/06/28 21:41:44;;;;;;;0.75;0.30;;;;;;;;;;20860079;28;20212;-73
2022/06/28 21:51:46;;;;;;;0.30;0.30;;;;;;;;;;20841939;28;20229;-76
2022/06/28 22:01:48;;;;;;;0.88;0.50;;;;;;;;;;20839351;28;20266;-76
2022/06/28 22:11:59;;;;;;;1.10;0.40;;;;;;;;;;20867637;28;20284;-77
2022/06/28 22:22:01;;;;;;;1.08;0.40;;;;;;;;;;20872387;28;20267;-77
2022/06/28 22:32:03;;;;;;;0.20;0.20;;;;;;;;;;20888625;28;20757;-76
2022/06/28 22:42:04;;;;;;;2.70;0.50;;;;;;;;;;20855926;28;20738;-77
2022/06/28 22:52:07;;;;;;;1.83;0.50;;;;;;;;;;20886986;28;20774;-76
2022/06/28 23:02:09;;;;;;;1.00;0.40;;;;;;;;;;20854806;28;20786;-76
2022/06/28 23:12:12;;;;;;;0.38;0.30;;;;;;;;;;20870321;28;20233;-76
2022/06/28 23:22:14;;;;;;;0.50;0.30;;;;;;;;;;20885978;28;20213;-76
2022/06/28 23:32:16;;;;;;;2.00;0.35;;;;;;;;;;20862002;28;20250;-77
2022/06/28 23:42:18;;;;;;;1.15;0.40;;;;;;;;;;20869263;28;20217;-76
2022/06/28 23:52:20;;;;;;;1.08;0.30;;;;;;;;;;20884474;28;20299;-76
